Hauptseite
METAR-TAF:

METAR-TAF

Flughäfen :

Parma, Italien

Flughafen Parma

Breite: 44-49-17N, Länge: 010-17-41E, Höhe: 50 m

Beobachtung

Neuester Wetterbericht von vor 4 Stunden und 18 Minuten, um 19:50 UTC
Wind 5 kt aus unterschiedlichen Richtungen
Temperatur 6°C
Luftfeuchtigkeit 93%
Luftdruck 1015 hPa
Sichtweite: 4000 m
feuchter Dunst

METAR: LIMP 191950Z VRB05KT 4000 BR NSC 06/05 Q1015

Zeit: 01:08 (00:08 UTC)

Prognose

Neuester Wetterbericht von vor 7 Stunden und 8 Minuten, um 17:00 UTC
Gültige Prognose vom 19 um 18 UTC bis 20 um 18 UTC
Wind 5 kt aus unterschiedlichen Richtungen
Sichtweite: 6000 m
Zeitweise
vom 20 um 02 UTC bis 20 um 08 UTC
Sichtweite: 2500 m
feuchter Dunst

TAF: LIMP 191700Z 1918/2018 VRB05KT 6000 NSC TEMPO 2002/2008 2500 BR

Wetterbeobachtungen und Prognosen von mehr als 4000 Flughäfen (METAR und TAF Bericht).

Die verfügbaren Stationen werden durch gelbe und rote Markierungen auf der Karte dargestellt.

Führen Sie die Maus auf sie, um den Namen der Station zu sehen.

Darauf klicken, um die Beobachtung von Wetterbeobachtungen und Prognosen zu sehen.

Um die Karte zu ändern : klicken Sie auf den grünen Tasten mit einem schwarzen Kreuz Zum Vergrößern, auf den grünen Button mit einem Gedankenstrich zu verkleinern, oder auf die grünen Pfeile für benachbarte Karten.


METAR-TAF: